Terminal Aerodrome Forecast
Issued by NWS

Home | Current Version | Previous Version | Text Only | Print | Product List | Glossary On
Versions: 1 2 3 4 5 6 7 8 9 10 11 12 13 14 15
201
FTUS43 KICT 242323
TAFSLN
TAF
KSLN 242323Z 2500/2524 29017G25KT P6SM VCSH SCT015 BKN130
      TEMPO 2500/2503 BKN015
     FM250300 31017G25KT P6SM SCT020 BKN130
      TEMPO 2503/2506 BKN020
     FM251400 32018G26KT P6SM SCT030 BKN200=

USA.gov is the U.S. government's official web portal to all federal, state and local government web resources and services.